»·PEaware :: WJA1401 KLAS-CYYC

WJA1401 :: KLAS-CYYC

FLIGHT INFORMATION

Flight Status: Arrived
Operator:
Westjet Airlines
More flights by this operator :: More flights under this callsign
Pilot: Jamyson D. (13674)
Aircraft: BOEING 737-800
(B738)
More flights by this aircraft type
Origin: KLAS McCarran Intl
United States
Destination: CYYC Calgary Intl
Canada
More flights between these airports :: More routes between these airports
Route: +STAAV8 MLF PICHO PATIO DLN TOVUM EBGAL5
File this flight plan on PilotEdge
Remarks:
Altitude:
(Current/Filed)
34,000ft
Speed:
(Current/Filed)
466kts
Departed: 23-Nov-19 02:02 PM
Arrived: 23-Nov-19 04:29 PM
Distance/Time
Traveled:
904nm/2:27
Distance/Time
To Go:
Arrived

Flight Plot

Page will automatically refresh every two minutes.

Flight plan parsing failed; only flown route is shown


Map Options




Map Legend


Flown Route
Filed Route
Departure Airport
Arrival Airport
Navaid (VOR, NDB)
Fix

Horizontal Profiles

Position Reports

Time Latitude Longitude Heading Altitude Ground
Speed
23-Nov-19 13:42 36.085272 -115.136777 25 2119ft 0kts
23-Nov-19 13:43 36.085272 -115.136777 25 2119ft 0kts
23-Nov-19 13:44 36.085272 -115.136777 25 2119ft 0kts
23-Nov-19 13:45 36.085272 -115.136777 25 2119ft 0kts
23-Nov-19 13:46 36.085272 -115.136777 25 2119ft 0kts
23-Nov-19 13:47 36.085272 -115.136777 25 2119ft 0kts
23-Nov-19 13:48 36.085272 -115.136777 25 2119ft 0kts
23-Nov-19 13:49 36.085272 -115.136777 25 2119ft 0kts
23-Nov-19 13:50 36.085272 -115.136777 25 2119ft 0kts
23-Nov-19 13:51 36.085056 -115.136904 25 2119ft 2kts
23-Nov-19 13:52 36.084558 -115.137302 54 2119ft 2kts
23-Nov-19 13:53 36.084428 -115.137840 90 2119ft 0kts
23-Nov-19 13:54 36.084428 -115.137840 90 2118ft 0kts
23-Nov-19 13:55 36.084428 -115.136687 89 2119ft 10kts
23-Nov-19 13:56 36.083305 -115.133408 135 2118ft 8kts
23-Nov-19 13:57 36.079712 -115.132925 180 2118ft 19kts
23-Nov-19 13:58 36.078276 -115.128838 89 2118ft 17kts
23-Nov-19 13:59 36.078263 -115.122757 94 2119ft 15kts
23-Nov-19 14:00 36.076604 -115.121308 198 2119ft 14kts
23-Nov-19 14:01 36.076187 -115.159911 270 2566ft 192kts
23-Nov-19 14:02 36.076324 -115.231192 270 4396ft 237kts
23-Nov-19 14:03 36.112539 -115.290967 342 7236ft 243kts
23-Nov-19 14:04 36.170361 -115.262485 59 9485ft 269kts
23-Nov-19 14:05 36.195762 -115.166664 86 11070ft 323kts
23-Nov-19 14:06 36.197821 -115.053017 90 13571ft 339kts
23-Nov-19 14:07 36.199030 -114.933393 90 15885ft 355kts
23-Nov-19 14:08 36.212297 -114.810692 67 18014ft 372kts
23-Nov-19 14:09 36.277105 -114.709703 37 20027ft 385kts
23-Nov-19 14:10 36.363496 -114.626829 36 21909ft 398kts
23-Nov-19 14:11 36.452568 -114.542426 35 23639ft 409kts
23-Nov-19 14:12 36.544716 -114.455474 31 25214ft 420kts
23-Nov-19 14:13 36.644808 -114.377851 29 26653ft 430kts
23-Nov-19 14:14 36.746013 -114.299471 29 28000ft 439kts
23-Nov-19 14:15 36.850749 -114.218068 29 29257ft 448kts
23-Nov-19 14:16 36.957562 -114.134793 29 30490ft 455kts
23-Nov-19 14:17 37.062682 -114.052557 30 32046ft 449kts
23-Nov-19 14:18 37.167446 -113.970317 30 33517ft 443kts
23-Nov-19 14:19 37.271783 -113.888141 30 34329ft 451kts
23-Nov-19 14:20 37.378057 -113.804148 30 34328ft 450kts
23-Nov-19 14:21 37.483573 -113.720502 30 34330ft 449kts
23-Nov-19 14:22 37.589196 -113.636466 30 34333ft 448kts
23-Nov-19 14:23 37.694351 -113.552533 30 34338ft 448kts
23-Nov-19 14:24 37.799673 -113.468181 30 34339ft 448kts
23-Nov-19 14:25 37.905156 -113.383409 30 34339ft 449kts
23-Nov-19 14:26 38.009935 -113.298919 31 34337ft 449kts
23-Nov-19 14:27 38.113564 -113.215055 31 34344ft 443kts
23-Nov-19 14:28 38.217639 -113.130568 31 34355ft 445kts
23-Nov-19 14:29 38.320201 -113.047002 31 34356ft 445kts
23-Nov-19 14:30 38.435058 -112.993604 11 34358ft 442kts
23-Nov-19 14:31 38.555195 -112.962190 10 34356ft 442kts
23-Nov-19 14:32 38.675322 -112.930563 10 34356ft 441kts
23-Nov-19 14:33 38.795273 -112.898891 10 34356ft 440kts
23-Nov-19 14:34 38.914689 -112.867233 10 34357ft 439kts
23-Nov-19 14:35 39.034431 -112.835387 11 34368ft 439kts
23-Nov-19 14:36 39.151259 -112.804209 11 34375ft 439kts
23-Nov-19 14:37 39.269312 -112.772600 11 34375ft 437kts
23-Nov-19 14:38 39.388608 -112.740544 11 34375ft 439kts
23-Nov-19 14:40 39.507910 -112.708374 11 34374ft 438kts
23-Nov-19 14:41 39.626794 -112.676202 11 34376ft 437kts
23-Nov-19 14:42 39.745859 -112.643871 11 34383ft 437kts
23-Nov-19 14:43 39.864423 -112.611559 11 34383ft 437kts
23-Nov-19 14:44 39.983732 -112.583079 2 34388ft 437kts
23-Nov-19 14:45 40.104082 -112.578161 1 34382ft 433kts
23-Nov-19 14:46 40.224536 -112.573594 1 34387ft 435kts
23-Nov-19 14:47 40.345301 -112.568999 1 34393ft 434kts
23-Nov-19 14:48 40.465694 -112.564402 1 34393ft 433kts
23-Nov-19 14:49 40.585537 -112.559821 1 34392ft 432kts
23-Nov-19 14:50 40.705535 -112.555200 1 34401ft 432kts
23-Nov-19 14:51 40.825351 -112.550579 1 34401ft 431kts
23-Nov-19 14:52 40.944760 -112.545947 1 34401ft 430kts
23-Nov-19 14:53 41.064231 -112.541305 1 34399ft 428kts
23-Nov-19 14:54 41.180424 -112.536778 1 34404ft 427kts
23-Nov-19 14:55 41.298980 -112.532981 359 34404ft 426kts
23-Nov-19 14:56 41.417305 -112.533878 359 34403ft 425kts
23-Nov-19 14:57 41.535198 -112.534244 359 34402ft 424kts
23-Nov-19 14:57 41.633357 -112.534564 359 34401ft 423kts
23-Nov-19 14:59 41.770839 -112.535025 359 34401ft 423kts
23-Nov-19 15:00 41.888467 -112.535402 359 34400ft 423kts
23-Nov-19 15:00 41.986240 -112.535728 359 34399ft 422kts
23-Nov-19 15:01 42.102818 -112.536136 359 35068ft 423kts
23-Nov-19 15:03 42.238903 -112.536596 358 36329ft 422kts
23-Nov-19 15:03 42.336656 -112.536894 358 36376ft 419kts
23-Nov-19 15:04 42.452776 -112.537297 358 36368ft 419kts
23-Nov-19 15:05 42.569594 -112.537698 358 36365ft 419kts
23-Nov-19 15:06 42.685505 -112.538083 358 36365ft 419kts
23-Nov-19 15:07 42.802108 -112.538484 358 36365ft 420kts
23-Nov-19 15:08 42.918933 -112.538888 358 36365ft 420kts
23-Nov-19 15:09 43.035103 -112.539287 357 36363ft 419kts
23-Nov-19 15:10 43.150908 -112.539684 357 36369ft 420kts
23-Nov-19 15:11 43.267338 -112.540078 357 36368ft 420kts
23-Nov-19 15:12 43.383711 -112.540484 357 36361ft 420kts
23-Nov-19 15:13 43.499763 -112.540891 357 36358ft 420kts
23-Nov-19 15:14 43.615831 -112.541290 356 36358ft 420kts
23-Nov-19 15:15 43.732817 -112.541676 356 36342ft 420kts
23-Nov-19 15:16 43.849552 -112.542087 356 36295ft 420kts
23-Nov-19 15:17 43.966295 -112.542500 356 36292ft 421kts
23-Nov-19 15:18 44.083061 -112.542913 356 36291ft 419kts
23-Nov-19 15:19 44.193335 -112.543308 356 36356ft 419kts
23-Nov-19 15:20 44.312077 -112.543731 356 36369ft 420kts
23-Nov-19 15:21 44.428782 -112.544149 356 36262ft 419kts
23-Nov-19 15:22 44.544888 -112.544568 356 36186ft 418kts
23-Nov-19 15:23 44.661133 -112.544992 355 36184ft 419kts
23-Nov-19 15:24 44.776780 -112.545410 355 36183ft 418kts
23-Nov-19 15:25 44.892925 -112.545835 355 36182ft 417kts
23-Nov-19 15:26 45.008762 -112.546259 355 36182ft 417kts
23-Nov-19 15:27 45.123863 -112.546682 355 36188ft 417kts
23-Nov-19 15:28 45.239094 -112.547107 355 36187ft 416kts
23-Nov-19 15:29 45.354575 -112.553739 353 36186ft 414kts
23-Nov-19 15:30 45.469753 -112.560957 353 36185ft 415kts
23-Nov-19 15:31 45.585029 -112.568193 353 36178ft 415kts
23-Nov-19 15:32 45.701571 -112.575575 353 36179ft 432kts
23-Nov-19 15:33 45.823480 -112.583257 353 36172ft 443kts
23-Nov-19 15:34 45.944211 -112.590922 353 36173ft 440kts
23-Nov-19 15:35 46.064825 -112.598651 352 36171ft 440kts
23-Nov-19 15:36 46.184046 -112.606258 352 36180ft 440kts
23-Nov-19 15:37 46.306221 -112.614147 352 36177ft 439kts
23-Nov-19 15:38 46.427556 -112.622071 352 36175ft 438kts
23-Nov-19 15:39 46.549397 -112.630049 352 36154ft 439kts
23-Nov-19 15:40 46.670834 -112.638007 352 36150ft 437kts
23-Nov-19 15:41 46.791850 -112.646012 352 36146ft 438kts
23-Nov-19 15:42 46.912255 -112.653999 352 36136ft 436kts
23-Nov-19 15:43 47.033069 -112.662056 352 36135ft 437kts
23-Nov-19 15:44 47.150561 -112.669916 352 36142ft 437kts
23-Nov-19 15:45 47.271312 -112.678029 351 36141ft 437kts
23-Nov-19 15:46 47.392033 -112.686166 351 36130ft 436kts
23-Nov-19 15:47 47.512362 -112.694314 351 36058ft 435kts
23-Nov-19 15:48 47.632928 -112.702508 351 35993ft 434kts
23-Nov-19 15:49 47.753113 -112.710726 351 35970ft 437kts
23-Nov-19 15:50 47.872891 -112.718920 351 35962ft 435kts
23-Nov-19 15:51 47.993236 -112.727199 351 35962ft 435kts
23-Nov-19 15:52 48.108743 -112.735155 350 35964ft 433kts
23-Nov-19 15:53 48.226130 -112.743308 350 35968ft 434kts
23-Nov-19 15:54 48.345529 -112.751605 350 35967ft 433kts
23-Nov-19 15:55 48.465329 -112.759969 350 35966ft 432kts
23-Nov-19 15:56 48.584777 -112.768338 350 35965ft 432kts
23-Nov-19 15:57 48.704536 -112.776764 350 35964ft 432kts
23-Nov-19 15:58 48.824370 -112.785212 350 35962ft 431kts
23-Nov-19 15:59 48.943710 -112.793657 349 35962ft 432kts
23-Nov-19 16:00 49.063020 -112.802109 349 35911ft 431kts
23-Nov-19 16:01 49.178296 -112.810279 349 35877ft 430kts
23-Nov-19 16:02 49.293927 -112.833419 338 35877ft 421kts
23-Nov-19 16:03 49.406141 -112.876065 339 35874ft 420kts
23-Nov-19 16:04 49.517562 -112.917842 339 35862ft 421kts
23-Nov-19 16:05 49.630322 -112.960202 339 35852ft 419kts
23-Nov-19 16:06 49.743534 -113.002984 338 35851ft 420kts
23-Nov-19 16:07 49.856212 -113.045754 338 35850ft 419kts
23-Nov-19 16:08 49.967996 -113.088282 338 35700ft 401kts
23-Nov-19 16:09 50.075020 -113.129386 337 33265ft 396kts
23-Nov-19 16:10 50.181627 -113.170501 337 30528ft 411kts
23-Nov-19 16:11 50.290168 -113.212364 337 28076ft 396kts
23-Nov-19 16:12 50.393793 -113.252648 337 25752ft 378kts
23-Nov-19 16:13 50.492390 -113.291151 338 23462ft 362kts
23-Nov-19 16:14 50.587788 -113.328568 339 21208ft 347kts
23-Nov-19 16:15 50.679126 -113.366664 332 18976ft 331kts
23-Nov-19 16:16 50.751283 -113.445429 316 17080ft 306kts
23-Nov-19 16:17 50.818228 -113.536796 317 15056ft 317kts
23-Nov-19 16:18 50.883702 -113.626353 317 12979ft 307kts
23-Nov-19 16:19 50.942933 -113.712757 308 11317ft 295kts
23-Nov-19 16:20 50.998252 -113.806295 318 10310ft 280kts
23-Nov-19 16:21 51.068854 -113.845382 352 9163ft 274kts
23-Nov-19 16:22 51.140415 -113.846911 357 8282ft 255kts
23-Nov-19 16:23 51.204783 -113.846710 357 7769ft 217kts
23-Nov-19 16:24 51.249510 -113.889806 289 6658ft 174kts
23-Nov-19 16:25 51.243439 -113.961051 229 5342ft 162kts
23-Nov-19 16:26 51.202896 -113.988452 184 4607ft 164kts
23-Nov-19 16:27 51.158008 -113.990162 181 3791ft 167kts
23-Nov-19 16:28 51.127569 -113.992064 237 3565ft 19kts
23-Nov-19 16:29 51.130018 -113.993028 359 3565ft 11kts
23-Nov-19 16:30 51.131615 -113.995513 269 3565ft 10kts
23-Nov-19 16:31 51.131485 -114.000271 222 3565ft 5kts
23-Nov-19 16:32 51.130936 -114.000246 180 3564ft 0kts
23-Nov-19 16:33 51.130936 -114.000246 180 3564ft 0kts
23-Nov-19 16:34 51.130936 -114.000246 180 3564ft 0kts
23-Nov-19 16:35 51.130936 -114.000246 180 3564ft 0kts

Navigation Log

Ident Type
Flight plan parsing failed, navigation log unavailable